sensor_id;sensor_type;location;lat;lon;timestamp;pressure;altitude;pressure_sealevel;temperature;humidity
57248;BME280;55809;46.618;10.764;2023-11-19T00:01:01;93503.06;;;5.12;100.00
57248;BME280;55809;46.618;10.764;2023-11-19T00:03:30;93493.56;;;5.14;100.00
57248;BME280;55809;46.618;10.764;2023-11-19T00:05:58;93484.75;;;5.14;100.00
57248;BME280;55809;46.618;10.764;2023-11-19T00:08:25;93489.25;;;5.10;100.00
57248;BME280;55809;46.618;10.764;2023-11-19T00:10:54;93477.41;;;4.91;100.00
57248;BME280;55809;46.618;10.764;2023-11-19T00:13:21;93485.25;;;5.00;100.00
57248;BME280;55809;46.618;10.764;2023-11-19T00:15:48;93478.75;;;5.01;100.00
57248;BME280;55809;46.618;10.764;2023-11-19T00:18:15;93488.31;;;5.02;100.00
57248;BME280;55809;46.618;10.764;2023-11-19T00:20:42;93472.72;;;5.04;100.00
57248;BME280;55809;46.618;10.764;2023-11-19T00:23:10;93471.25;;;5.07;100.00
57248;BME280;55809;46.618;10.764;2023-11-19T00:25:37;93467.75;;;5.06;100.00
57248;BME280;55809;46.618;10.764;2023-11-19T00:28:06;93469.66;;;5.06;100.00
57248;BME280;55809;46.618;10.764;2023-11-19T00:30:33;93457.84;;;5.07;100.00
57248;BME280;55809;46.618;10.764;2023-11-19T00:32:59;93443.97;;;5.01;100.00
57248;BME280;55809;46.618;10.764;2023-11-19T00:35:26;93461.22;;;5.04;100.00
57248;BME280;55809;46.618;10.764;2023-11-19T00:37:53;93446.22;;;4.99;100.00
57248;BME280;55809;46.618;10.764;2023-11-19T00:40:20;93446.66;;;5.01;100.00
57248;BME280;55809;46.618;10.764;2023-11-19T00:42:48;93437.69;;;4.93;100.00
57248;BME280;55809;46.618;10.764;2023-11-19T00:45:17;93441.78;;;4.87;100.00
57248;BME280;55809;46.618;10.764;2023-11-19T00:47:44;93437.13;;;4.84;100.00
57248;BME280;55809;46.618;10.764;2023-11-19T00:50:11;93330.94;;;4.14;100.00
57248;BME280;55809;46.618;10.764;2023-11-19T00:52:38;93407.59;;;4.61;100.00
57248;BME280;55809;46.618;10.764;2023-11-19T00:55:06;93426.09;;;4.70;100.00
57248;BME280;55809;46.618;10.764;2023-11-19T00:57:33;93425.47;;;4.77;100.00
57248;BME280;55809;46.618;10.764;2023-11-19T01:00:01;93415.31;;;4.66;100.00
57248;BME280;55809;46.618;10.764;2023-11-19T01:02:35;93408.38;;;4.62;100.00
57248;BME280;55809;46.618;10.764;2023-11-19T01:05:03;93418.44;;;4.68;100.00
57248;BME280;55809;46.618;10.764;2023-11-19T01:07:29;93422.66;;;4.69;100.00
57248;BME280;55809;46.618;10.764;2023-11-19T01:09:57;93420.34;;;4.68;100.00
57248;BME280;55809;46.618;10.764;2023-11-19T01:12:24;93405.00;;;4.65;100.00
57248;BME280;55809;46.618;10.764;2023-11-19T01:14:51;93403.88;;;4.66;100.00
57248;BME280;55809;46.618;10.764;2023-11-19T01:17:18;93408.00;;;4.63;100.00
57248;BME280;55809;46.618;10.764;2023-11-19T01:19:46;93410.66;;;4.63;100.00
57248;BME280;55809;46.618;10.764;2023-11-19T01:22:15;93406.38;;;4.59;100.00
57248;BME280;55809;46.618;10.764;2023-11-19T01:24:42;93409.50;;;4.61;100.00
57248;BME280;55809;46.618;10.764;2023-11-19T01:27:09;93402.88;;;4.55;100.00
57248;BME280;55809;46.618;10.764;2023-11-19T01:29:36;93417.50;;;4.61;100.00
57248;BME280;55809;46.618;10.764;2023-11-19T01:32:05;93421.56;;;4.55;100.00
57248;BME280;55809;46.618;10.764;2023-11-19T01:34:32;93423.03;;;4.52;100.00
57248;BME280;55809;46.618;10.764;2023-11-19T01:37:00;93415.69;;;4.65;100.00
57248;BME280;55809;46.618;10.764;2023-11-19T01:39:27;93416.91;;;4.67;100.00
57248;BME280;55809;46.618;10.764;2023-11-19T01:41:54;93423.41;;;4.70;100.00
57248;BME280;55809;46.618;10.764;2023-11-19T01:44:21;93412.41;;;4.72;100.00
57248;BME280;55809;46.618;10.764;2023-11-19T01:46:48;93410.50;;;4.72;100.00
57248;BME280;55809;46.618;10.764;2023-11-19T01:49:16;93406.47;;;4.62;100.00
57248;BME280;55809;46.618;10.764;2023-11-19T01:51:44;93400.84;;;4.67;100.00
57248;BME280;55809;46.618;10.764;2023-11-19T01:54:13;93400.56;;;4.73;100.00
57248;BME280;55809;46.618;10.764;2023-11-19T01:56:42;93367.16;;;4.47;100.00
57248;BME280;55809;46.618;10.764;2023-11-19T01:59:11;93390.38;;;4.78;100.00
57248;BME280;55809;46.618;10.764;2023-11-19T02:01:40;93398.03;;;4.80;100.00
57248;BME280;55809;46.618;10.764;2023-11-19T02:04:08;93371.66;;;4.78;100.00
57248;BME280;55809;46.618;10.764;2023-11-19T02:06:36;93384.97;;;4.75;100.00
57248;BME280;55809;46.618;10.764;2023-11-19T02:09:05;93368.47;;;4.73;100.00
57248;BME280;55809;46.618;10.764;2023-11-19T02:11:34;93360.91;;;4.75;100.00
57248;BME280;55809;46.618;10.764;2023-11-19T02:14:01;93358.28;;;4.78;100.00
57248;BME280;55809;46.618;10.764;2023-11-19T02:16:29;93359.19;;;4.86;100.00
57248;BME280;55809;46.618;10.764;2023-11-19T02:18:56;93356.81;;;4.81;100.00
57248;BME280;55809;46.618;10.764;2023-11-19T02:21:23;93355.53;;;4.75;100.00
57248;BME280;55809;46.618;10.764;2023-11-19T02:23:50;93359.50;;;4.81;100.00
57248;BME280;55809;46.618;10.764;2023-11-19T02:26:24;93369.19;;;4.89;100.00
57248;BME280;55809;46.618;10.764;2023-11-19T02:28:56;93370.47;;;5.14;100.00
57248;BME280;55809;46.618;10.764;2023-11-19T02:31:23;93365.91;;;5.15;100.00
57248;BME280;55809;46.618;10.764;2023-11-19T02:33:52;93353.03;;;5.01;100.00
57248;BME280;55809;46.618;10.764;2023-11-19T02:36:20;93293.28;;;4.55;100.00
57248;BME280;55809;46.618;10.764;2023-11-19T02:38:47;93339.78;;;4.89;100.00
57248;BME280;55809;46.618;10.764;2023-11-19T02:41:14;93349.91;;;4.80;100.00
57248;BME280;55809;46.618;10.764;2023-11-19T02:43:41;93345.88;;;4.70;100.00
57248;BME280;55809;46.618;10.764;2023-11-19T02:46:10;93334.41;;;4.69;100.00
57248;BME280;55809;46.618;10.764;2023-11-19T02:48:37;93332.81;;;4.65;100.00
57248;BME280;55809;46.618;10.764;2023-11-19T02:51:05;93331.47;;;4.75;100.00
57248;BME280;55809;46.618;10.764;2023-11-19T02:53:34;93329.16;;;4.73;100.00
57248;BME280;55809;46.618;10.764;2023-11-19T02:56:03;93307.63;;;4.66;100.00
57248;BME280;55809;46.618;10.764;2023-11-19T02:58:37;93312.47;;;4.60;100.00
57248;BME280;55809;46.618;10.764;2023-11-19T03:01:04;93304.28;;;4.53;100.00
57248;BME280;55809;46.618;10.764;2023-11-19T03:03:39;93309.94;;;4.67;100.00
57248;BME280;55809;46.618;10.764;2023-11-19T03:06:07;93307.63;;;4.66;100.00
57248;BME280;55809;46.618;10.764;2023-11-19T03:08:35;93308.31;;;4.63;100.00
57248;BME280;55809;46.618;10.764;2023-11-19T03:11:01;93314.03;;;4.61;100.00
57248;BME280;55809;46.618;10.764;2023-11-19T03:13:30;93320.91;;;4.62;100.00
57248;BME280;55809;46.618;10.764;2023-11-19T03:15:57;93324.28;;;4.59;100.00
57248;BME280;55809;46.618;10.764;2023-11-19T03:18:23;93309.16;;;4.47;100.00
57248;BME280;55809;46.618;10.764;2023-11-19T03:20:52;93312.78;;;4.39;100.00
57248;BME280;55809;46.618;10.764;2023-11-19T03:23:19;93308.66;;;4.42;100.00
57248;BME280;55809;46.618;10.764;2023-11-19T03:25:46;93308.66;;;4.42;100.00
57248;BME280;55809;46.618;10.764;2023-11-19T03:28:12;93302.63;;;4.45;100.00
57248;BME280;55809;46.618;10.764;2023-11-19T03:30:40;93303.00;;;4.47;100.00
57248;BME280;55809;46.618;10.764;2023-11-19T03:33:07;93301.16;;;4.47;100.00
57248;BME280;55809;46.618;10.764;2023-11-19T03:35:34;93290.94;;;4.53;100.00
57248;BME280;55809;46.618;10.764;2023-11-19T03:38:02;93285.59;;;4.53;100.00
57248;BME280;55809;46.618;10.764;2023-11-19T03:40:29;93283.47;;;4.43;100.00
57248;BME280;55809;46.618;10.764;2023-11-19T03:42:56;93295.69;;;4.44;100.00
57248;BME280;55809;46.618;10.764;2023-11-19T03:45:24;93283.41;;;4.39;100.00
57248;BME280;55809;46.618;10.764;2023-11-19T03:47:51;93295.00;;;4.47;100.00
57248;BME280;55809;46.618;10.764;2023-11-19T03:50:18;93290.03;;;4.45;100.00
57248;BME280;55809;46.618;10.764;2023-11-19T03:52:45;93283.19;;;4.48;100.00
57248;BME280;55809;46.618;10.764;2023-11-19T03:55:14;93244.72;;;4.33;100.00
57248;BME280;55809;46.618;10.764;2023-11-19T03:57:40;93284.13;;;4.56;100.00
57248;BME280;55809;46.618;10.764;2023-11-19T04:00:08;93273.97;;;4.45;100.00
57248;BME280;55809;46.618;10.764;2023-11-19T04:02:35;93276.22;;;4.43;100.00
57248;BME280;55809;46.618;10.764;2023-11-19T04:05:03;93262.53;;;4.45;100.00
57248;BME280;55809;46.618;10.764;2023-11-19T04:07:30;93260.94;;;4.44;100.00
57248;BME280;55809;46.618;10.764;2023-11-19T04:09:57;93239.72;;;4.32;100.00
57248;BME280;55809;46.618;10.764;2023-11-19T04:12:25;93262.94;;;4.47;100.00
57248;BME280;55809;46.618;10.764;2023-11-19T04:14:52;93259.91;;;4.49;100.00
57248;BME280;55809;46.618;10.764;2023-11-19T04:17:19;93254.56;;;4.49;100.00
57248;BME280;55809;46.618;10.764;2023-11-19T04:19:46;93247.41;;;4.53;100.00
57248;BME280;55809;46.618;10.764;2023-11-19T04:22:13;93226.94;;;4.41;100.00
57248;BME280;55809;46.618;10.764;2023-11-19T04:24:40;93268.22;;;4.63;100.00
57248;BME280;55809;46.618;10.764;2023-11-19T04:27:09;93258.00;;;4.49;100.00
57248;BME280;55809;46.618;10.764;2023-11-19T04:29:37;93257.25;;;4.49;100.00
57248;BME280;55809;46.618;10.764;2023-11-19T04:32:05;93248.88;;;4.50;100.00
57248;BME280;55809;46.618;10.764;2023-11-19T04:34:32;93254.34;;;4.57;100.00
57248;BME280;55809;46.618;10.764;2023-11-19T04:36:59;93241.34;;;4.56;100.00
57248;BME280;55809;46.618;10.764;2023-11-19T04:39:27;93258.38;;;4.47;100.00
57248;BME280;55809;46.618;10.764;2023-11-19T04:41:54;93259.09;;;4.44;100.00
57248;BME280;55809;46.618;10.764;2023-11-19T04:44:21;93245.78;;;4.29;100.00
57248;BME280;55809;46.618;10.764;2023-11-19T04:46:49;93260.19;;;4.43;100.00
57248;BME280;55809;46.618;10.764;2023-11-19T04:49:16;93252.25;;;4.47;100.00
57248;BME280;55809;46.618;10.764;2023-11-19T04:51:45;93246.97;;;4.51;100.00
57248;BME280;55809;46.618;10.764;2023-11-19T04:54:12;93253.50;;;4.53;100.00
57248;BME280;55809;46.618;10.764;2023-11-19T04:56:39;93235.16;;;4.52;100.00
57248;BME280;55809;46.618;10.764;2023-11-19T04:59:06;93226.78;;;4.73;100.00
57248;BME280;55809;46.618;10.764;2023-11-19T05:01:34;93233.06;;;4.61;100.00
57248;BME280;55809;46.618;10.764;2023-11-19T05:04:03;93224.28;;;4.41;100.00
57248;BME280;55809;46.618;10.764;2023-11-19T05:06:30;93236.81;;;4.21;100.00
57248;BME280;55809;46.618;10.764;2023-11-19T05:08:58;93237.19;;;4.19;100.00
57248;BME280;55809;46.618;10.764;2023-11-19T05:11:26;93247.88;;;4.19;100.00
57248;BME280;55809;46.618;10.764;2023-11-19T05:13:53;93247.03;;;4.35;100.00
57248;BME280;55809;46.618;10.764;2023-11-19T05:16:20;93248.59;;;4.36;100.00
57248;BME280;55809;46.618;10.764;2023-11-19T05:18:47;93271.44;;;4.33;100.00
57248;BME280;55809;46.618;10.764;2023-11-19T05:21:15;93260.03;;;4.36;100.00
57248;BME280;55809;46.618;10.764;2023-11-19T05:23:42;93271.25;;;4.42;100.00
57248;BME280;55809;46.618;10.764;2023-11-19T05:26:17;93272.50;;;4.48;100.00
57248;BME280;55809;46.618;10.764;2023-11-19T05:28:44;93150.53;;;3.62;100.00
57248;BME280;55809;46.618;10.764;2023-11-19T05:31:11;93263.78;;;4.32;100.00
57248;BME280;55809;46.618;10.764;2023-11-19T05:33:37;93292.63;;;4.42;100.00
57248;BME280;55809;46.618;10.764;2023-11-19T05:36:05;93276.38;;;4.31;100.00
57248;BME280;55809;46.618;10.764;2023-11-19T05:38:35;93314.16;;;4.49;100.00
57248;BME280;55809;46.618;10.764;2023-11-19T05:41:01;93313.72;;;4.47;100.00
57248;BME280;55809;46.618;10.764;2023-11-19T05:43:28;93315.63;;;4.46;100.00
57248;BME280;55809;46.618;10.764;2023-11-19T05:45:55;93262.09;;;4.08;100.00
57248;BME280;55809;46.618;10.764;2023-11-19T05:48:22;93326.03;;;4.52;100.00
57248;BME280;55809;46.618;10.764;2023-11-19T05:50:49;93324.22;;;4.56;100.00
57248;BME280;55809;46.618;10.764;2023-11-19T05:53:16;93301.47;;;4.46;100.00
57248;BME280;55809;46.618;10.764;2023-11-19T05:55:44;93332.66;;;4.58;100.00
57248;BME280;55809;46.618;10.764;2023-11-19T05:58:15;93320.91;;;4.62;100.00
57248;BME280;55809;46.618;10.764;2023-11-19T06:00:42;93309.50;;;4.65;100.00
57248;BME280;55809;46.618;10.764;2023-11-19T06:03:09;93304.94;;;4.66;100.00
57248;BME280;55809;46.618;10.764;2023-11-19T06:05:36;93306.22;;;4.72;100.00
57248;BME280;55809;46.618;10.764;2023-11-19T06:08:03;93317.19;;;4.86;100.00
57248;BME280;55809;46.618;10.764;2023-11-19T06:10:29;93312.34;;;4.92;100.00
57248;BME280;55809;46.618;10.764;2023-11-19T06:12:59;93315.84;;;4.96;100.00
57248;BME280;55809;46.618;10.764;2023-11-19T06:15:30;93321.75;;;4.86;100.00
57248;BME280;55809;46.618;10.764;2023-11-19T06:17:58;93290.66;;;4.58;100.00
57248;BME280;55809;46.618;10.764;2023-11-19T06:20:27;93325.69;;;4.73;100.00
57248;BME280;55809;46.618;10.764;2023-11-19T06:22:56;93327.47;;;4.65;100.00
57248;BME280;55809;46.618;10.764;2023-11-19T06:25:23;93310.78;;;4.52;100.00
57248;BME280;55809;46.618;10.764;2023-11-19T06:27:51;93325.13;;;4.63;100.00
57248;BME280;55809;46.618;10.764;2023-11-19T06:30:19;93325.28;;;4.70;100.00
57248;BME280;55809;46.618;10.764;2023-11-19T06:32:46;93338.16;;;4.84;100.00
57248;BME280;55809;46.618;10.764;2023-11-19T06:35:13;93337.81;;;4.86;100.00
57248;BME280;55809;46.618;10.764;2023-11-19T06:37:40;93191.78;;;3.84;100.00
57248;BME280;55809;46.618;10.764;2023-11-19T06:40:08;93342.19;;;4.75;100.00
57248;BME280;55809;46.618;10.764;2023-11-19T06:42:37;93324.69;;;4.42;100.00
57248;BME280;55809;46.618;10.764;2023-11-19T06:45:05;93351.59;;;4.68;100.00
57248;BME280;55809;46.618;10.764;2023-11-19T06:47:34;93340.25;;;4.56;100.00
57248;BME280;55809;46.618;10.764;2023-11-19T06:50:01;93357.97;;;4.64;100.00
57248;BME280;55809;46.618;10.764;2023-11-19T06:52:31;93368.59;;;4.60;100.00
57248;BME280;55809;46.618;10.764;2023-11-19T06:54:57;93370.09;;;4.58;100.00
57248;BME280;55809;46.618;10.764;2023-11-19T06:57:24;93371.63;;;4.59;100.00
57248;BME280;55809;46.618;10.764;2023-11-19T06:59:51;93353.63;;;4.56;100.00
57248;BME280;55809;46.618;10.764;2023-11-19T07:02:18;93373.31;;;4.67;100.00
57248;BME280;55809;46.618;10.764;2023-11-19T07:04:46;93376.63;;;4.60;100.00
57248;BME280;55809;46.618;10.764;2023-11-19T07:07:13;93367.50;;;4.61;100.00
57248;BME280;55809;46.618;10.764;2023-11-19T07:09:41;93364.88;;;4.65;100.00
57248;BME280;55809;46.618;10.764;2023-11-19T07:12:08;93361.28;;;4.57;100.00
57248;BME280;55809;46.618;10.764;2023-11-19T07:14:36;93372.41;;;4.59;100.00
57248;BME280;55809;46.618;10.764;2023-11-19T07:17:03;93377.66;;;4.56;100.00
57248;BME280;55809;46.618;10.764;2023-11-19T07:19:29;93369.13;;;4.50;100.00
57248;BME280;55809;46.618;10.764;2023-11-19T07:21:58;93372.19;;;4.49;100.00
57248;BME280;55809;46.618;10.764;2023-11-19T07:24:24;93372.94;;;4.49;100.00
57248;BME280;55809;46.618;10.764;2023-11-19T07:26:54;93373.03;;;4.53;100.00
57248;BME280;55809;46.618;10.764;2023-11-19T07:29:20;93309.94;;;4.13;100.00
57248;BME280;55809;46.618;10.764;2023-11-19T07:31:48;93354.34;;;4.37;100.00
57248;BME280;55809;46.618;10.764;2023-11-19T07:34:16;93369.13;;;4.50;100.00
57248;BME280;55809;46.618;10.764;2023-11-19T07:36:42;93378.38;;;4.53;100.00
57248;BME280;55809;46.618;10.764;2023-11-19T07:39:10;93374.56;;;4.54;100.00
57248;BME280;55809;46.618;10.764;2023-11-19T07:41:37;93385.78;;;4.59;100.00
57248;BME280;55809;46.618;10.764;2023-11-19T07:44:04;93379.38;;;4.64;100.00
57248;BME280;55809;46.618;10.764;2023-11-19T07:46:32;93379.84;;;4.50;100.00
57248;BME280;55809;46.618;10.764;2023-11-19T07:48:58;93275.84;;;3.90;100.00
57248;BME280;55809;46.618;10.764;2023-11-19T07:51:25;93389.66;;;4.62;100.00
57248;BME280;55809;46.618;10.764;2023-11-19T07:53:52;93384.38;;;4.65;100.00
57248;BME280;55809;46.618;10.764;2023-11-19T07:56:20;93391.25;;;4.66;100.00
57248;BME280;55809;46.618;10.764;2023-11-19T07:58:47;93384.97;;;4.75;100.00
57248;BME280;55809;46.618;10.764;2023-11-19T08:01:15;93385.38;;;4.77;100.00
57248;BME280;55809;46.618;10.764;2023-11-19T08:03:42;93386.88;;;4.74;100.00
57248;BME280;55809;46.618;10.764;2023-11-19T08:06:09;93393.16;;;4.66;100.00
57248;BME280;55809;46.618;10.764;2023-11-19T08:08:37;93390.63;;;4.73;100.00
57248;BME280;55809;46.618;10.764;2023-11-19T08:11:04;93387.28;;;4.76;100.00
57248;BME280;55809;46.618;10.764;2023-11-19T08:13:33;93390.22;;;4.71;100.00
57248;BME280;55809;46.618;10.764;2023-11-19T08:16:00;93387.13;;;4.69;100.00
57248;BME280;55809;46.618;10.764;2023-11-19T08:18:27;93384.88;;;4.71;100.00
57248;BME280;55809;46.618;10.764;2023-11-19T08:20:54;93373.97;;;4.80;100.00
57248;BME280;55809;46.618;10.764;2023-11-19T08:23:22;93384.59;;;4.76;100.00
57248;BME280;55809;46.618;10.764;2023-11-19T08:25:51;93385.38;;;4.77;100.00
57248;BME280;55809;46.618;10.764;2023-11-19T08:28:17;93400.84;;;4.87;100.00
57248;BME280;55809;46.618;10.764;2023-11-19T08:30:46;93397.47;;;4.90;100.00
57248;BME280;55809;46.618;10.764;2023-11-19T08:33:13;93402.13;;;4.93;100.00
57248;BME280;55809;46.618;10.764;2023-11-19T08:35:40;93406.00;;;4.96;100.00
57248;BME280;55809;46.618;10.764;2023-11-19T08:38:07;93401.50;;;5.00;100.00
57248;BME280;55809;46.618;10.764;2023-11-19T08:40:34;93399.47;;;4.93;100.00
57248;BME280;55809;46.618;10.764;2023-11-19T08:43:01;93389.97;;;4.96;100.00
57248;BME280;55809;46.618;10.764;2023-11-19T08:45:28;93391.09;;;4.94;100.00
57248;BME280;55809;46.618;10.764;2023-11-19T08:47:57;93389.34;;;5.02;100.00
57248;BME280;55809;46.618;10.764;2023-11-19T08:50:23;93372.09;;;5.00;100.00
57248;BME280;55809;46.618;10.764;2023-11-19T08:52:50;93371.75;;;5.01;100.00
57248;BME280;55809;46.618;10.764;2023-11-19T08:55:17;93379.91;;;5.08;100.00
57248;BME280;55809;46.618;10.764;2023-11-19T08:57:44;93381.88;;;5.11;100.00
57248;BME280;55809;46.618;10.764;2023-11-19T09:00:12;93392.09;;;5.06;100.00
57248;BME280;55809;46.618;10.764;2023-11-19T09:02:39;93382.00;;;5.18;100.00
57248;BME280;55809;46.618;10.764;2023-11-19T09:05:08;93380.97;;;5.23;100.00
57248;BME280;55809;46.618;10.764;2023-11-19T09:07:35;93371.63;;;5.13;100.00
57248;BME280;55809;46.618;10.764;2023-11-19T09:10:02;93350.97;;;5.14;100.00
57248;BME280;55809;46.618;10.764;2023-11-19T09:12:31;93348.25;;;5.10;100.00
57248;BME280;55809;46.618;10.764;2023-11-19T09:14:57;93349.47;;;5.16;100.00
57248;BME280;55809;46.618;10.764;2023-11-19T09:17:24;93351.66;;;5.30;100.00
57248;BME280;55809;46.618;10.764;2023-11-19T09:19:51;93353.06;;;5.44;100.00
57248;BME280;55809;46.618;10.764;2023-11-19T09:22:20;93344.72;;;5.49;100.00
57248;BME280;55809;46.618;10.764;2023-11-19T09:24:47;93338.84;;;5.62;100.00
57248;BME280;55809;46.618;10.764;2023-11-19T09:27:14;93288.97;;;5.31;100.00
57248;BME280;55809;46.618;10.764;2023-11-19T09:29:41;93305.75;;;5.51;100.00
57248;BME280;55809;46.618;10.764;2023-11-19T09:32:11;93318.88;;;5.79;100.00
57248;BME280;55809;46.618;10.764;2023-11-19T09:34:38;93310.50;;;5.84;100.00
57248;BME280;55809;46.618;10.764;2023-11-19T09:37:05;93300.63;;;5.88;100.00
57248;BME280;55809;46.618;10.764;2023-11-19T09:39:33;93307.47;;;6.09;100.00
57248;BME280;55809;46.618;10.764;2023-11-19T09:42:00;93299.06;;;6.10;100.00
57248;BME280;55809;46.618;10.764;2023-11-19T09:44:27;93297.09;;;6.07;100.00
57248;BME280;55809;46.618;10.764;2023-11-19T09:46:55;93303.56;;;6.03;100.00
57248;BME280;55809;46.618;10.764;2023-11-19T09:49:25;93302.78;;;6.02;100.00
57248;BME280;55809;46.618;10.764;2023-11-19T09:51:53;93293.19;;;6.01;100.00
57248;BME280;55809;46.618;10.764;2023-11-19T09:54:20;93297.19;;;6.41;100.00
57248;BME280;55809;46.618;10.764;2023-11-19T09:56:48;93282.91;;;6.60;100.00
57248;BME280;55809;46.618;10.764;2023-11-19T09:59:16;93284.22;;;6.73;100.00
57248;BME280;55809;46.618;10.764;2023-11-19T10:01:45;93271.56;;;6.74;100.00
57248;BME280;55809;46.618;10.764;2023-11-19T10:04:15;93273.91;;;6.75;100.00
57248;BME280;55809;46.618;10.764;2023-11-19T10:06:42;93272.72;;;6.73;100.00
57248;BME280;55809;46.618;10.764;2023-11-19T10:09:11;93272.28;;;6.71;100.00
57248;BME280;55809;46.618;10.764;2023-11-19T10:11:40;93270.75;;;6.70;100.00
57248;BME280;55809;46.618;10.764;2023-11-19T10:14:09;93271.75;;;6.58;100.00
57248;BME280;55809;46.618;10.764;2023-11-19T10:16:38;93252.97;;;6.58;100.00
57248;BME280;55809;46.618;10.764;2023-11-19T10:19:04;93194.56;;;6.10;100.00
57248;BME280;55809;46.618;10.764;2023-11-19T10:21:32;93260.44;;;6.72;100.00
57248;BME280;55809;46.618;10.764;2023-11-19T10:24:00;93255.22;;;6.86;100.00
57248;BME280;55809;46.618;10.764;2023-11-19T10:26:27;93248.47;;;6.99;100.00
57248;BME280;55809;46.618;10.764;2023-11-19T10:28:55;93250.91;;;7.12;100.00
57248;BME280;55809;46.618;10.764;2023-11-19T10:31:24;93256.41;;;7.26;100.00
57248;BME280;55809;46.618;10.764;2023-11-19T10:33:52;93262.22;;;7.32;100.00
57248;BME280;55809;46.618;10.764;2023-11-19T10:36:19;93254.13;;;7.28;100.00
57248;BME280;55809;46.618;10.764;2023-11-19T10:38:52;93249.44;;;7.18;100.00
57248;BME280;55809;46.618;10.764;2023-11-19T10:41:29;93247.91;;;7.20;100.00
57248;BME280;55809;46.618;10.764;2023-11-19T10:43:56;93239.38;;;7.08;100.00
57248;BME280;55809;46.618;10.764;2023-11-19T10:46:36;93235.53;;;7.09;100.00
57248;BME280;55809;46.618;10.764;2023-11-19T10:49:04;93223.38;;;7.18;100.00
57248;BME280;55809;46.618;10.764;2023-11-19T10:51:32;93212.69;;;7.25;100.00
57248;BME280;55809;46.618;10.764;2023-11-19T10:54:02;93206.88;;;7.20;100.00
57248;BME280;55809;46.618;10.764;2023-11-19T10:56:31;93204.13;;;7.54;100.00
57248;BME280;55809;46.618;10.764;2023-11-19T10:58:59;93158.19;;;7.73;100.00
57248;BME280;55809;46.618;10.764;2023-11-19T11:01:32;93191.06;;;8.11;100.00
57248;BME280;55809;46.618;10.764;2023-11-19T11:04:02;93190.31;;;8.14;100.00
57248;BME280;55809;46.618;10.764;2023-11-19T11:06:30;93188.06;;;8.23;100.00
57248;BME280;55809;46.618;10.764;2023-11-19T11:08:57;93188.38;;;8.14;100.00
57248;BME280;55809;46.618;10.764;2023-11-19T11:11:25;93174.63;;;8.30;100.00
57248;BME280;55809;46.618;10.764;2023-11-19T11:13:53;93168.16;;;8.38;100.00
57248;BME280;55809;46.618;10.764;2023-11-19T11:16:22;93169.00;;;8.57;100.00
57248;BME280;55809;46.618;10.764;2023-11-19T11:18:52;93179.00;;;8.53;100.00
57248;BME280;55809;46.618;10.764;2023-11-19T11:21:21;93170.84;;;8.38;100.00
57248;BME280;55809;46.618;10.764;2023-11-19T11:24:33;93158.81;;;8.18;100.00
57248;BME280;55809;46.618;10.764;2023-11-19T11:27:21;93154.19;;;8.15;100.00
57248;BME280;55809;46.618;10.764;2023-11-19T11:30:04;93141.91;;;8.10;100.00
57248;BME280;55809;46.618;10.764;2023-11-19T11:32:41;93146.56;;;8.24;100.00
57248;BME280;55809;46.618;10.764;2023-11-19T11:35:24;93160.50;;;8.44;100.00
57248;BME280;55809;46.618;10.764;2023-11-19T11:38:01;93145.19;;;8.62;100.00
57248;BME280;55809;46.618;10.764;2023-11-19T11:40:29;93135.56;;;8.58;100.00
57248;BME280;55809;46.618;10.764;2023-11-19T11:42:57;93131.31;;;8.50;100.00
57248;BME280;55809;46.618;10.764;2023-11-19T11:45:35;93122.50;;;8.53;100.00
57248;BME280;55809;46.618;10.764;2023-11-19T11:48:09;93117.56;;;8.76;100.00
57248;BME280;55809;46.618;10.764;2023-11-19T11:50:49;93117.97;;;8.89;100.00
57248;BME280;55809;46.618;10.764;2023-11-19T11:53:17;93117.56;;;8.80;100.00
57248;BME280;55809;46.618;10.764;2023-11-19T11:55:58;93119.47;;;8.83;100.00
57248;BME280;55809;46.618;10.764;2023-11-19T11:58:29;93114.47;;;8.74;100.00
57248;BME280;55809;46.618;10.764;2023-11-19T12:00:57;93113.28;;;8.72;100.00
57248;BME280;55809;46.618;10.764;2023-11-19T12:03:27;93107.13;;;8.50;100.00
57248;BME280;55809;46.618;10.764;2023-11-19T12:05:56;93106.69;;;8.44;100.00
57248;BME280;55809;46.618;10.764;2023-11-19T12:08:28;93102.53;;;8.72;100.00
57248;BME280;55809;46.618;10.764;2023-11-19T12:10:56;93090.22;;;8.60;100.00
57248;BME280;55809;46.618;10.764;2023-11-19T12:13:27;93087.88;;;8.40;100.00
57248;BME280;55809;46.618;10.764;2023-11-19T12:16:08;93094.69;;;8.13;100.00
57248;BME280;55809;46.618;10.764;2023-11-19T12:18:39;93094.25;;;8.04;100.00
57248;BME280;55809;46.618;10.764;2023-11-19T12:21:07;93097.59;;;7.86;100.00
57248;BME280;55809;46.618;10.764;2023-11-19T12:23:45;93098.72;;;7.74;100.00
57248;BME280;55809;46.618;10.764;2023-11-19T12:26:35;93099.03;;;7.66;100.00
57248;BME280;55809;46.618;10.764;2023-11-19T12:29:03;93105.91;;;7.63;100.00
57248;BME280;55809;46.618;10.764;2023-11-19T12:31:33;93110.91;;;7.58;100.00
57248;BME280;55809;46.618;10.764;2023-11-19T12:34:08;93114.69;;;7.53;100.00
57248;BME280;55809;46.618;10.764;2023-11-19T12:36:40;93104.78;;;7.61;100.00
57248;BME280;55809;46.618;10.764;2023-11-19T12:39:08;93108.69;;;7.74;100.00
57248;BME280;55809;46.618;10.764;2023-11-19T12:41:52;93105.28;;;7.84;100.00
57248;BME280;55809;46.618;10.764;2023-11-19T12:44:19;93105.31;;;7.91;100.00
57248;BME280;55809;46.618;10.764;2023-11-19T12:46:46;93109.97;;;8.02;100.00
57248;BME280;55809;46.618;10.764;2023-11-19T12:49:25;93103.47;;;8.06;100.00
57248;BME280;55809;46.618;10.764;2023-11-19T12:51:53;93096.50;;;7.94;100.00
57248;BME280;55809;46.618;10.764;2023-11-19T12:54:20;93090.69;;;7.85;100.00
57248;BME280;55809;46.618;10.764;2023-11-19T12:56:52;93081.06;;;7.77;100.00